Time;durP1;ratioP1;P1;durP2;ratioP2;P2;SDS_P1;SDS_P2;PMS_P1;PMS_P2;Temp;Humidity;BMP_temperature;BMP_pressure;BME280_temperature;BME280_humidity;BME280_pressure;Samples;Min_cycle;Max_cycle;Signal;HPM_P1;HPM_P2
2022/04/20 00:02:19;;;;;;;;;;;9.40;98.60;;;;;;6141081;23;19935;-90
2022/04/20 00:04:47;;;;;;;;;;;9.70;99.20;;;;;;6161800;23;19975;-90
2022/04/20 00:07:14;;;;;;;;;;;9.70;99.10;;;;;;6135778;23;19927;-90
2022/04/20 00:09:43;;;;;;;;;;;9.60;99.40;;;;;;6138081;23;19932;-89
2022/04/20 00:12:13;;;;;;;;;;;9.60;99.40;;;;;;6142885;23;20231;-89
2022/04/20 00:14:40;;;;;;;;;;;9.60;99.90;;;;;;6171632;23;19912;-89
2022/04/20 00:17:08;;;;;;;;;;;9.50;99.90;;;;;;6097954;23;19921;-89
2022/04/20 00:19:36;;;;;;;;;;;9.50;99.90;;;;;;6161273;23;19931;-90
2022/04/20 00:22:04;;;;;;;;;;;9.50;99.90;;;;;;6136208;23;19928;-89
2022/04/20 00:24:32;;;;;;;;;;;9.30;99.90;;;;;;6135724;23;19925;-89
2022/04/20 00:27:02;;;;;;;;;;;9.50;99.90;;;;;;6134308;23;19905;-88
2022/04/20 00:29:29;;;;;;;;;;;9.40;99.90;;;;;;6156814;23;19931;-90
2022/04/20 00:31:57;;;;;;;;;;;9.30;99.90;;;;;;6157583;23;19927;-89
2022/04/20 00:34:25;;;;;;;;;;;9.30;99.90;;;;;;6133815;23;19927;-89
2022/04/20 00:36:55;;;;;;;;;;;9.30;99.90;;;;;;6109622;23;19931;-89
2022/04/20 00:39:23;;;;;;;;;;;9.30;99.90;;;;;;6133209;23;19920;-90
2022/04/20 00:41:52;;;;;;;;;;;9.30;99.90;;;;;;6156846;23;19921;-90
2022/04/20 00:44:21;;;;;;;;;;;9.20;99.90;;;;;;6132155;23;19925;-89
2022/04/20 00:46:50;;;;;;;;;;;9.20;99.90;;;;;;6133571;23;19931;-91
2022/04/20 00:49:20;;;;;;;;;;;9.10;99.90;;;;;;6132495;23;19921;-89
2022/04/20 00:51:53;;;;;;;;;;;8.30;99.90;;;;;;6107749;23;20339;-90
2022/04/20 00:54:22;;;;;;;;;;;9.50;99.90;;;;;;6156745;23;19952;-89
2022/04/20 00:56:53;;;;;;;;;;;9.10;99.90;;;;;;6132291;23;19928;-89
2022/04/20 00:59:22;;;;;;;;;;;9.00;99.90;;;;;;6132238;23;19928;-89
2022/04/20 01:01:52;;;;;;;;;;;9.10;99.90;;;;;;6155345;23;20495;-88
2022/04/20 01:04:21;;;;;;;;;;;9.00;99.90;;;;;;6134968;23;19921;-89
2022/04/20 01:07:16;;;;;;;;;;;9.00;99.90;;;;;;6139586;23;19921;-90
2022/04/20 01:10:05;;;;;;;;;;;9.00;99.90;;;;;;6156607;23;19931;-89
2022/04/20 01:12:43;;;;;;;;;;;9.00;99.90;;;;;;6157713;23;19931;-90
2022/04/20 01:15:31;;;;;;;;;;;9.00;99.90;;;;;;6152552;23;19931;-90
2022/04/20 01:18:15;;;;;;;;;;;8.90;99.90;;;;;;6134260;23;19921;-89
2022/04/20 01:20:55;;;;;;;;;;;8.90;99.90;;;;;;6155670;23;19920;-90
2022/04/20 01:23:44;;;;;;;;;;;8.90;99.90;;;;;;6142151;23;19921;-88
2022/04/20 01:26:39;;;;;;;;;;;8.80;99.90;;;;;;6140823;23;20449;-89
2022/04/20 01:29:22;;;;;;;;;;;8.80;99.90;;;;;;6169083;23;19921;-89
2022/04/20 01:32:04;;;;;;;;;;;8.60;99.90;;;;;;6166395;23;19931;-89
2022/04/20 01:34:45;;;;;;;;;;;8.80;99.90;;;;;;6155084;23;19931;-89
2022/04/20 01:37:22;;;;;;;;;;;8.80;99.90;;;;;;6156905;23;20375;-89
2022/04/20 01:39:52;;;;;;;;;;;8.70;99.90;;;;;;6130554;23;19927;-88
2022/04/20 01:42:20;;;;;;;;;;;8.70;99.90;;;;;;6129388;23;19929;-89
2022/04/20 01:44:50;;;;;;;;;;;8.70;99.90;;;;;;6155880;23;20257;-90
2022/04/20 01:47:47;;;;;;;;;;;8.70;99.90;;;;;;6100075;23;19935;-89
2022/04/20 01:51:46;;;;;;;;;;;8.60;99.90;;;;;;6131516;23;19921;-89
2022/04/20 01:53:41;;;;;;;;;;;8.60;99.90;;;;;;6155843;23;19920;-89
2022/04/20 01:56:33;;;;;;;;;;;8.60;99.90;;;;;;6123119;23;19932;-89
2022/04/20 01:59:28;;;;;;;;;;;8.60;99.90;;;;;;6125966;23;19925;-88
2022/04/20 02:04:57;;;;;;;;;;;8.60;99.90;;;;;;6157245;23;19925;-89
2022/04/20 02:07:26;;;;;;;;;;;8.50;99.90;;;;;;6132318;23;19925;-89
2022/04/20 02:09:54;;;;;;;;;;;8.50;99.90;;;;;;6131303;23;20253;-88
2022/04/20 02:12:24;;;;;;;;;;;8.50;99.90;;;;;;6131459;23;19927;-89
2022/04/20 02:15:10;;;;;;;;;;;8.50;99.90;;;;;;6154854;23;19929;-89
2022/04/20 02:17:57;;;;;;;;;;;8.50;99.90;;;;;;6132689;23;19931;-89
2022/04/20 02:20:39;;;;;;;;;;;8.50;99.90;;;;;;6109294;23;19943;-89
2022/04/20 02:23:10;;;;;;;;;;;8.50;99.90;;;;;;6158730;23;19925;-89
2022/04/20 02:25:40;;;;;;;;;;;8.50;99.90;;;;;;6133337;23;19925;-90
2022/04/20 02:28:08;;;;;;;;;;;8.50;99.90;;;;;;6109833;23;19921;-90
2022/04/20 02:30:38;;;;;;;;;;;8.40;99.90;;;;;;6134280;23;20523;-91
2022/04/20 02:33:08;;;;;;;;;;;8.40;99.90;;;;;;6160559;23;19928;-88
2022/04/20 02:35:36;;;;;;;;;;;8.40;99.90;;;;;;6137607;23;19933;-90
2022/04/20 02:38:14;;;;;;;;;;;8.40;99.90;;;;;;6167385;23;19927;-89
2022/04/20 02:40:42;;;;;;;;;;;8.40;99.90;;;;;;6144215;23;19947;-91
2022/04/20 02:43:11;;;;;;;;;;;8.40;99.90;;;;;;6169479;23;19921;-89
2022/04/20 02:45:39;;;;;;;;;;;8.40;99.90;;;;;;6145605;23;20455;-90
2022/04/20 02:48:07;;;;;;;;;;;8.50;99.90;;;;;;6120848;23;19925;-90
2022/04/20 02:50:34;;;;;;;;;;;8.40;99.90;;;;;;6145326;23;19929;-89
2022/04/20 02:53:03;;;;;;;;;;;8.40;99.90;;;;;;6119640;23;19933;-90
2022/04/20 02:55:34;;;;;;;;;;;8.40;99.90;;;;;;6142427;23;19927;-90
2022/04/20 02:58:07;;;;;;;;;;;8.40;99.90;;;;;;6143294;23;19921;-91
2022/04/20 03:00:43;;;;;;;;;;;8.40;99.90;;;;;;6139499;23;19917;-89
2022/04/20 03:03:24;;;;;;;;;;;8.40;99.90;;;;;;6162958;23;20369;-88
2022/04/20 03:05:56;;;;;;;;;;;8.40;99.90;;;;;;6140577;23;19931;-89
2022/04/20 03:08:25;;;;;;;;;;;8.40;99.90;;;;;;6137301;23;19921;-88
2022/04/20 03:10:56;;;;;;;;;;;8.40;99.90;;;;;;6159939;23;19928;-89
2022/04/20 03:13:27;;;;;;;;;;;8.50;99.90;;;;;;6136672;23;19932;-89
2022/04/20 03:15:57;;;;;;;;;;;8.50;99.90;;;;;;6159991;23;19924;-89
2022/04/20 03:18:24;;;;;;;;;;;8.40;99.90;;;;;;6141142;23;19924;-89
2022/04/20 03:20:54;;;;;;;;;;;8.50;99.90;;;;;;6138713;23;19932;-89
2022/04/20 03:23:23;;;;;;;;;;;8.50;99.90;;;;;;6169384;23;20024;-89
2022/04/20 03:25:55;;;;;;;;;;;8.50;99.90;;;;;;6171383;23;19925;-89
2022/04/20 03:28:44;;;;;;;;;;;8.50;99.90;;;;;;6133714;23;20389;-88
2022/04/20 03:31:11;;;;;;;;;;;8.50;99.90;;;;;;6158835;23;19921;-89
2022/04/20 03:33:41;;;;;;;;;;;8.50;99.90;;;;;;6137377;23;19936;-87
2022/04/20 03:36:12;;;;;;;;;;;8.50;99.90;;;;;;6143060;23;19921;-89
2022/04/20 03:38:40;;;;;;;;;;;8.40;99.90;;;;;;6148772;23;19919;-88
2022/04/20 03:41:10;;;;;;;;;;;8.40;99.90;;;;;;6150830;23;19948;-88
2022/04/20 03:43:38;;;;;;;;;;;8.40;99.90;;;;;;6151882;23;19965;-89
2022/04/20 03:46:11;;;;;;;;;;;8.40;99.90;;;;;;6173111;23;19927;-89
2022/04/20 03:48:40;;;;;;;;;;;8.40;99.90;;;;;;6146932;23;20000;-89
2022/04/20 03:51:09;;;;;;;;;;;8.40;99.90;;;;;;6146982;23;19927;-88
2022/04/20 03:53:37;;;;;;;;;;;8.40;99.90;;;;;;6168269;23;19935;-90
2022/04/20 03:56:06;;;;;;;;;;;8.40;99.90;;;;;;6162714;23;19921;-89
2022/04/20 03:58:36;;;;;;;;;;;8.10;99.90;;;;;;6140363;23;19921;-89
2022/04/20 04:01:05;;;;;;;;;;;7.50;99.90;;;;;;6160028;23;19920;-89
2022/04/20 04:03:34;;;;;;;;;;;8.30;99.90;;;;;;6164240;23;19921;-89
2022/04/20 04:06:11;;;;;;;;;;;8.30;99.90;;;;;;6162159;23;19925;-89
2022/04/20 04:08:39;;;;;;;;;;;8.30;99.90;;;;;;6137814;23;19932;-91
2022/04/20 04:11:08;;;;;;;;;;;8.40;99.90;;;;;;6113966;23;19921;-88
2022/04/20 04:13:38;;;;;;;;;;;8.20;99.90;;;;;;6140996;23;19920;-90
2022/04/20 04:16:06;;;;;;;;;;;8.20;99.90;;;;;;6137841;23;19921;-89
2022/04/20 04:18:36;;;;;;;;;;;8.20;99.90;;;;;;6112306;23;19921;-89
2022/04/20 04:21:07;;;;;;;;;;;8.20;99.90;;;;;;6161422;23;19925;-88
2022/04/20 04:23:36;;;;;;;;;;;8.20;99.90;;;;;;6162108;23;19931;-89
2022/04/20 04:26:20;;;;;;;;;;;8.20;99.90;;;;;;6162912;23;19928;-90
2022/04/20 04:28:50;;;;;;;;;;;8.20;99.90;;;;;;6135606;23;20360;-89
2022/04/20 04:31:19;;;;;;;;;;;8.10;99.90;;;;;;6159770;23;19925;-90
2022/04/20 04:33:49;;;;;;;;;;;8.10;99.90;;;;;;6164548;23;19928;-89
2022/04/20 04:36:18;;;;;;;;;;;8.10;99.90;;;;;;6165288;23;19927;-88
2022/04/20 04:38:54;;;;;;;;;;;8.10;99.90;;;;;;6141842;23;19925;-88
2022/04/20 04:41:32;;;;;;;;;;;8.10;99.90;;;;;;6173279;23;19924;-89
2022/04/20 04:44:01;;;;;;;;;;;8.10;99.90;;;;;;6123510;23;19921;-88
2022/04/20 04:49:32;;;;;;;;;;;8.00;99.90;;;;;;6148123;23;20271;-88
2022/04/20 04:52:11;;;;;;;;;;;8.00;99.90;;;;;;6126974;23;19964;-87
2022/04/20 04:54:48;;;;;;;;;;;8.00;99.90;;;;;;6152029;23;19969;-88
2022/04/20 04:57:20;;;;;;;;;;;8.00;99.90;;;;;;6102892;23;19921;-88
2022/04/20 04:59:51;;;;;;;;;;;8.00;99.90;;;;;;6149728;23;19965;-89
2022/04/20 05:02:28;;;;;;;;;;;8.00;99.90;;;;;;6172004;23;19924;-89
2022/04/20 05:05:00;;;;;;;;;;;9.60;99.90;;;;;;6150339;23;19953;-90
2022/04/20 05:07:47;;;;;;;;;;;8.30;99.90;;;;;;6141367;23;19909;-89
2022/04/20 05:10:19;;;;;;;;;;;8.10;99.90;;;;;;6171980;23;19925;-89
2022/04/20 05:13:00;;;;;;;;;;;8.10;99.90;;;;;;6169326;23;19927;-89
2022/04/20 05:15:45;;;;;;;;;;;8.10;99.90;;;;;;6139184;23;19921;-90
2022/04/20 05:18:16;;;;;;;;;;;8.10;99.90;;;;;;6171202;23;19919;-89
2022/04/20 05:20:44;;;;;;;;;;;8.10;99.90;;;;;;6149405;23;19933;-89
2022/04/20 05:23:19;;;;;;;;;;;8.10;99.90;;;;;;6150943;23;19917;-90
2022/04/20 05:25:52;;;;;;;;;;;8.10;99.90;;;;;;6147383;23;20323;-90
2022/04/20 05:28:20;;;;;;;;;;;6.90;99.90;;;;;;6140776;23;19925;-88
2022/04/20 05:30:54;;;;;;;;;;;8.10;99.90;;;;;;6117773;23;19921;-88
2022/04/20 05:33:24;;;;;;;;;;;8.10;99.90;;;;;;6117362;23;19929;-88
2022/04/20 05:35:57;;;;;;;;;;;8.20;99.90;;;;;;6135799;23;19936;-89
2022/04/20 05:41:40;;;;;;;;;;;8.20;99.90;;;;;;6169587;23;19921;-89
2022/04/20 05:44:17;;;;;;;;;;;8.20;99.90;;;;;;6145301;23;19928;-89
2022/04/20 05:46:50;;;;;;;;;;;8.30;99.90;;;;;;6143432;23;19931;-89
2022/04/20 05:53:13;;;;;;;;;;;8.40;99.90;;;;;;6176640;23;19950;-88
2022/04/20 05:56:36;;;;;;;;;;;8.30;99.90;;;;;;6162795;23;19969;-89
2022/04/20 05:59:32;;;;;;;;;;;8.60;99.90;;;;;;6129237;23;19948;-89
2022/04/20 06:02:08;;;;;;;;;;;7.70;99.90;;;;;;6181210;23;19927;-87
2022/04/20 06:04:58;;;;;;;;;;;8.70;99.90;;;;;;6146755;23;19949;-88
2022/04/20 06:07:52;;;;;;;;;;;8.90;99.90;;;;;;6124031;23;19911;-87
2022/04/20 06:10:47;;;;;;;;;;;10.30;99.90;;;;;;6120649;23;19925;-87
2022/04/20 06:13:17;;;;;;;;;;;9.10;99.90;;;;;;6137858;23;19920;-87
2022/04/20 06:16:22;;;;;;;;;;;9.10;99.90;;;;;;6166077;23;19921;-89
2022/04/20 06:19:08;;;;;;;;;;;9.20;99.90;;;;;;6117533;23;19925;-89
2022/04/20 06:22:03;;;;;;;;;;;9.30;99.90;;;;;;6142192;23;19928;-88
2022/04/20 06:24:58;;;;;;;;;;;9.40;99.90;;;;;;6118789;23;19921;-89
2022/04/20 06:27:34;;;;;;;;;;;9.40;99.90;;;;;;6142713;23;19924;-87
2022/04/20 06:30:17;;;;;;;;;;;9.50;99.90;;;;;;6164894;23;19925;-87
2022/04/20 06:33:07;;;;;;;;;;;9.60;99.90;;;;;;6139437;23;19921;-87
2022/04/20 06:35:58;;;;;;;;;;;9.60;99.90;;;;;;6110909;23;19921;-87
2022/04/20 06:38:55;;;;;;;;;;;9.70;99.90;;;;;;6139719;23;19925;-86
2022/04/20 06:41:51;;;;;;;;;;;9.80;99.90;;;;;;6161413;23;19931;-85
2022/04/20 06:44:39;;;;;;;;;;;9.80;99.90;;;;;;6143810;23;19921;-86
2022/04/20 06:47:39;;;;;;;;;;;9.90;99.90;;;;;;6130139;23;19905;-87
2022/04/20 06:59:58;;;;;;;;;;;10.10;99.90;;;;;;6145480;23;19940;-81
2022/04/20 07:03:00;;;;;;;;;;;10.70;99.90;;;;;;6102578;23;19927;-81
2022/04/20 07:05:52;;;;;;;;;;;10.10;99.90;;;;;;6158098;23;19935;-80
2022/04/20 07:08:38;;;;;;;;;;;10.20;99.90;;;;;;6146573;23;19921;-82
2022/04/20 07:11:28;;;;;;;;;;;10.20;99.90;;;;;;6149935;23;19921;-78
2022/04/20 07:14:03;;;;;;;;;;;10.30;99.90;;;;;;6158790;23;19925;-80
2022/04/20 07:16:37;;;;;;;;;;;10.30;99.90;;;;;;6147527;23;19969;-81
2022/04/20 07:19:21;;;;;;;;;;;10.40;99.90;;;;;;6148755;23;19909;-80
2022/04/20 07:22:05;;;;;;;;;;;10.40;99.90;;;;;;6145751;23;19936;-81
2022/04/20 07:24:42;;;;;;;;;;;10.50;99.90;;;;;;6168835;23;19927;-81
2022/04/20 07:27:29;;;;;;;;;;;10.70;99.90;;;;;;6167277;23;20069;-84
2022/04/20 07:30:28;;;;;;;;;;;10.60;99.90;;;;;;6142669;23;19931;-81
2022/04/20 07:33:18;;;;;;;;;;;10.50;99.90;;;;;;6116487;23;19931;-83
2022/04/20 07:36:21;;;;;;;;;;;10.70;99.90;;;;;;6124741;23;19931;-81
2022/04/20 07:38:49;;;;;;;;;;;10.70;99.90;;;;;;6146693;23;19925;-80
2022/04/20 07:41:38;;;;;;;;;;;10.80;99.90;;;;;;6146109;23;19919;-83
2022/04/20 07:44:26;;;;;;;;;;;10.80;99.90;;;;;;6143395;23;19940;-81
2022/04/20 07:47:08;;;;;;;;;;;10.80;99.90;;;;;;6145347;23;19921;-82
2022/04/20 07:53:00;;;;;;;;;;;11.00;99.90;;;;;;6168182;23;19920;-83
2022/04/20 07:55:52;;;;;;;;;;;11.00;99.90;;;;;;6145860;23;19931;-82
2022/04/20 07:58:46;;;;;;;;;;;11.20;99.90;;;;;;6144119;23;19932;-82
2022/04/20 08:01:41;;;;;;;;;;;11.40;99.90;;;;;;6144080;23;19921;-83
2022/04/20 08:04:33;;;;;;;;;;;11.40;99.90;;;;;;6168857;23;19931;-80
2022/04/20 08:07:26;;;;;;;;;;;11.40;99.90;;;;;;6143054;23;19925;-81
2022/04/20 08:09:59;;;;;;;;;;;11.50;99.90;;;;;;6141702;23;20194;-84
2022/04/20 08:12:33;;;;;;;;;;;11.60;99.90;;;;;;6151863;23;19925;-83
2022/04/20 08:15:14;;;;;;;;;;;11.70;99.90;;;;;;6143780;23;20399;-82
2022/04/20 08:17:51;;;;;;;;;;;11.40;99.90;;;;;;6176520;23;19925;-85
2022/04/20 08:20:44;;;;;;;;;;;12.00;99.90;;;;;;6122394;23;19925;-82
2022/04/20 08:23:14;;;;;;;;;;;12.00;99.90;;;;;;6168618;23;19921;-81
2022/04/20 08:25:44;;;;;;;;;;;12.10;99.90;;;;;;6152697;23;19925;-82
2022/04/20 08:28:14;;;;;;;;;;;12.30;99.90;;;;;;6116438;23;19921;-81
2022/04/20 08:30:45;;;;;;;;;;;12.30;99.90;;;;;;6176798;23;20107;-81
2022/04/20 08:33:14;;;;;;;;;;;12.40;99.90;;;;;;6179014;23;19927;-83
2022/04/20 08:35:47;;;;;;;;;;;12.50;99.90;;;;;;6153183;23;19920;-83
2022/04/20 08:38:22;;;;;;;;;;;12.60;99.90;;;;;;6146097;23;19925;-80
2022/04/20 08:40:55;;;;;;;;;;;12.70;99.90;;;;;;6138114;23;19925;-85
2022/04/20 08:43:29;;;;;;;;;;;12.80;99.90;;;;;;6165907;23;19927;-82
2022/04/20 08:45:59;;;;;;;;;;;12.80;99.90;;;;;;6141544;23;19917;-82
2022/04/20 08:48:28;;;;;;;;;;;12.90;99.90;;;;;;6142291;23;19925;-80
2022/04/20 08:50:59;;;;;;;;;;;13.00;99.90;;;;;;6162835;23;19916;-81
2022/04/20 08:53:28;;;;;;;;;;;13.20;99.90;;;;;;6164735;23;19925;-80
2022/04/20 08:58:50;;;;;;;;;;;13.30;99.90;;;;;;6141086;23;19921;-83
2022/04/20 09:01:26;;;;;;;;;;;13.40;99.80;;;;;;6140292;23;19916;-82
2022/04/20 09:03:55;;;;;;;;;;;13.40;99.90;;;;;;6150583;23;19929;-81
2022/04/20 09:06:24;;;;;;;;;;;13.50;99.90;;;;;;6143820;23;19924;-80
2022/04/20 09:08:54;;;;;;;;;;;13.60;99.90;;;;;;6153342;23;19921;-83
2022/04/20 09:11:23;;;;;;;;;;;13.70;99.90;;;;;;6170076;23;19925;-82
2022/04/20 09:13:53;;;;;;;;;;;13.70;99.10;;;;;;6151421;23;19931;-83
2022/04/20 09:16:22;;;;;;;;;;;13.80;99.00;;;;;;6117372;23;19925;-82
2022/04/20 09:18:51;;;;;;;;;;;14.20;99.00;;;;;;6137691;23;19928;-81
2022/04/20 09:21:20;;;;;;;;;;;14.00;98.80;;;;;;6141386;23;19921;-81
2022/04/20 09:24:03;;;;;;;;;;;14.20;98.70;;;;;;6153386;23;19925;-81
2022/04/20 09:26:34;;;;;;;;;;;14.30;98.10;;;;;;6144516;23;19921;-81
2022/04/20 09:29:06;;;;;;;;;;;14.40;97.70;;;;;;6151673;23;19931;-83
2022/04/20 09:31:45;;;;;;;;;;;14.80;96.70;;;;;;6142257;23;19925;-82
2022/04/20 09:34:23;;;;;;;;;;;14.70;96.50;;;;;;6177942;23;19920;-81
2022/04/20 09:37:16;;;;;;;;;;;15.00;95.50;;;;;;6154023;23;19925;-84
2022/04/20 09:39:47;;;;;;;;;;;15.00;95.50;;;;;;6152632;23;19928;-85
2022/04/20 09:42:18;;;;;;;;;;;15.20;94.00;;;;;;6165940;23;19931;-80
2022/04/20 09:45:01;;;;;;;;;;;15.20;93.70;;;;;;6141991;23;19924;-81
2022/04/20 09:50:26;;;;;;;;;;;15.40;93.80;;;;;;6151985;23;19940;-84
2022/04/20 09:52:55;;;;;;;;;;;15.50;92.90;;;;;;6150826;23;19931;-81
2022/04/20 09:55:31;;;;;;;;;;;15.50;93.10;;;;;;6140340;23;19921;-84
2022/04/20 09:58:13;;;;;;;;;;;15.60;91.50;;;;;;6152122;23;20069;-81
2022/04/20 10:00:44;;;;;;;;;;;15.70;92.60;;;;;;6160491;23;19954;-82
2022/04/20 10:03:28;;;;;;;;;;;15.80;91.30;;;;;;6139346;23;19925;-81
2022/04/20 10:05:57;;;;;;;;;;;16.00;91.40;;;;;;6140419;23;20225;-82
2022/04/20 10:08:29;;;;;;;;;;;17.20;91.50;;;;;;6113039;23;20225;-82
2022/04/20 10:11:00;;;;;;;;;;;16.10;91.50;;;;;;6137563;23;19921;-82
2022/04/20 10:13:31;;;;;;;;;;;16.20;91.70;;;;;;6146621;23;19925;-80
2022/04/20 10:16:09;;;;;;;;;;;16.40;90.80;;;;;;6140154;23;19920;-81
2022/04/20 10:18:40;;;;;;;;;;;16.30;90.60;;;;;;6174398;23;20253;-81
2022/04/20 10:21:14;;;;;;;;;;;16.50;90.60;;;;;;6163177;23;20353;-81
2022/04/20 10:23:52;;;;;;;;;;;16.50;87.20;;;;;;6146109;23;20260;-80
2022/04/20 10:26:20;;;;;;;;;;;16.60;87.00;;;;;;6148382;23;19921;-80
2022/04/20 10:29:01;;;;;;;;;;;16.60;84.10;;;;;;6149301;23;19925;-82
2022/04/20 10:31:42;;;;;;;;;;;15.20;83.90;;;;;;6136971;23;19925;-81
2022/04/20 10:34:14;;;;;;;;;;;16.50;85.90;;;;;;6138479;23;19935;-81
2022/04/20 10:37:17;;;;;;;;;;;16.50;84.80;;;;;;6132099;23;20250;-81
2022/04/20 10:40:11;;;;;;;;;;;16.50;85.20;;;;;;6149411;23;19925;-81
2022/04/20 10:42:42;;;;;;;;;;;16.50;85.30;;;;;;6172859;23;19924;-80
2022/04/20 10:45:11;;;;;;;;;;;16.50;86.50;;;;;;6149893;23;20252;-83
2022/04/20 10:47:42;;;;;;;;;;;16.60;85.10;;;;;;6136977;23;19921;-82
2022/04/20 10:50:14;;;;;;;;;;;16.60;85.00;;;;;;6136808;23;19936;-82
2022/04/20 10:53:06;;;;;;;;;;;16.60;83.20;;;;;;6112241;23;19924;-80
2022/04/20 10:55:39;;;;;;;;;;;16.70;81.10;;;;;;6060569;23;19936;-82
2022/04/20 10:58:17;;;;;;;;;;;16.90;80.40;;;;;;6084883;23;20630;-84
2022/04/20 11:00:45;;;;;;;;;;;17.00;77.00;;;;;;6108530;23;19921;-80
2022/04/20 11:03:13;;;;;;;;;;;17.20;77.90;;;;;;6118939;23;19921;-82
2022/04/20 11:05:53;;;;;;;;;;;17.40;78.30;;;;;;6084216;23;19926;-80
2022/04/20 11:08:24;;;;;;;;;;;17.50;75.80;;;;;;6113999;23;19932;-80
2022/04/20 11:19:57;;;;;;;;;;;18.20;75.80;;;;;;6120171;23;19925;-83
2022/04/20 11:22:29;;;;;;;;;;;18.30;75.00;;;;;;6087428;23;19925;-81
2022/04/20 11:25:06;;;;;;;;;;;18.30;74.40;;;;;;6121206;23;19925;-83
2022/04/20 11:27:39;;;;;;;;;;;18.30;72.50;;;;;;6088854;23;20310;-81
2022/04/20 11:30:13;;;;;;;;;;;18.30;71.40;;;;;;6112689;23;19925;-85
2022/04/20 11:32:45;;;;;;;;;;;18.50;72.10;;;;;;6111170;23;19925;-82
2022/04/20 11:35:16;;;;;;;;;;;19.00;72.10;;;;;;6095989;23;19932;-82
2022/04/20 11:37:56;;;;;;;;;;;18.70;70.90;;;;;;6112137;23;19925;-83
2022/04/20 11:40:25;;;;;;;;;;;18.60;71.70;;;;;;6087706;23;19931;-84
2022/04/20 11:43:05;;;;;;;;;;;18.50;71.80;;;;;;6088702;23;19931;-80
2022/04/20 11:45:54;;;;;;;;;;;18.40;71.20;;;;;;6088739;23;19931;-82
2022/04/20 11:48:22;;;;;;;;;;;18.40;72.00;;;;;;6115015;23;19925;-81
2022/04/20 11:50:57;;;;;;;;;;;18.30;73.20;;;;;;6111073;23;19927;-80
2022/04/20 11:53:36;;;;;;;;;;;16.90;72.90;;;;;;6097709;23;19929;-80
2022/04/20 11:56:39;;;;;;;;;;;18.50;72.60;;;;;;6151437;23;19928;-80
2022/04/20 11:59:08;;;;;;;;;;;18.60;72.30;;;;;;6145711;23;19943;-80
2022/04/20 12:01:39;;;;;;;;;;;18.70;72.20;;;;;;6119193;23;19931;-84
2022/04/20 12:04:14;;;;;;;;;;;18.90;69.70;;;;;;6165375;23;19924;-81
2022/04/20 12:06:55;;;;;;;;;;;18.90;69.30;;;;;;6151653;23;19931;-81
2022/04/20 12:09:26;;;;;;;;;;;19.00;69.40;;;;;;6143179;23;19927;-82
2022/04/20 12:11:54;;;;;;;;;;;18.90;69.80;;;;;;6140941;23;19943;-86
2022/04/20 12:14:27;;;;;;;;;;;19.10;68.50;;;;;;6139031;23;19921;-82
2022/04/20 12:16:58;;;;;;;;;;;19.10;67.80;;;;;;6151110;23;19931;-84
2022/04/20 12:19:34;;;;;;;;;;;19.20;68.50;;;;;;6117789;23;20219;-81
2022/04/20 12:22:10;;;;;;;;;;;19.10;67.60;;;;;;6143592;23;19921;-80
2022/04/20 12:24:38;;;;;;;;;;;17.90;64.70;;;;;;6140684;23;19925;-82
2022/04/20 12:27:15;;;;;;;;;;;19.10;66.50;;;;;;6151177;23;19921;-81
2022/04/20 12:29:51;;;;;;;;;;;19.10;66.20;;;;;;6142293;23;19931;-82
2022/04/20 12:32:30;;;;;;;;;;;19.10;65.90;;;;;;6118481;23;19920;-82
2022/04/20 12:35:02;;;;;;;;;;;19.20;66.50;;;;;;6141806;23;20347;-81
2022/04/20 12:37:39;;;;;;;;;;;19.10;67.40;;;;;;6151871;23;19927;-86
2022/04/20 12:40:20;;;;;;;;;;;19.20;66.90;;;;;;6151175;23;19925;-82
2022/04/20 12:43:05;;;;;;;;;;;18.80;65.80;;;;;;6141865;23;19931;-81
2022/04/20 12:45:37;;;;;;;;;;;19.40;66.00;;;;;;6167123;23;19928;-82
2022/04/20 12:51:44;;;;;;;;;;;19.40;63.90;;;;;;6167941;23;19920;-87
2022/04/20 13:04:13;;;;;;;;;;;;;;;;;;;;;
2022/04/20 13:07:46;;;;;;;;;;;19.70;65.20;;;;;;5940983;24;20273;-84
2022/04/20 13:10:23;;;;;;;;;;;19.50;66.60;;;;;;5919169;24;19919;-84
2022/04/20 13:18:08;;;;;;;;;;;;;;;;;;;;;
2022/04/20 13:21:15;;;;;;;;;;;19.50;66.00;;;;;;5921994;24;19927;-85
2022/04/20 13:28:14;;;;;;;;;;;19.60;63.80;;;;;;6089490;23;19928;-82
2022/04/20 13:30:45;;;;;;;;;;;19.50;64.40;;;;;;6063671;23;19921;-81
2022/04/20 13:33:13;;;;;;;;;;;19.40;65.50;;;;;;6090305;23;19964;-83
2022/04/20 13:36:01;;;;;;;;;;;19.30;62.60;;;;;;6032397;23;19926;-81
2022/04/20 13:38:31;;;;;;;;;;;19.20;63.30;;;;;;6056294;23;19921;-83
2022/04/20 13:40:59;;;;;;;;;;;19.10;63.90;;;;;;6081315;23;20320;-82
2022/04/20 13:43:27;;;;;;;;;;;19.10;62.80;;;;;;6094264;23;20080;-84
2022/04/20 13:45:56;;;;;;;;;;;19.10;63.40;;;;;;6174638;23;19921;-81
2022/04/20 13:48:25;;;;;;;;;;;19.00;63.10;;;;;;6141542;23;19927;-83
2022/04/20 13:50:52;;;;;;;;;;;19.30;62.50;;;;;;6143541;23;19931;-80
2022/04/20 13:53:21;;;;;;;;;;;19.70;63.10;;;;;;6151744;23;20338;-83
2022/04/20 13:55:51;;;;;;;;;;;19.40;62.40;;;;;;6172440;23;19921;-83
2022/04/20 13:58:20;;;;;;;;;;;19.70;60.90;;;;;;6092613;23;19921;-83
2022/04/20 14:00:49;;;;;;;;;;;19.90;60.00;;;;;;6142353;23;19925;-81
2022/04/20 14:03:17;;;;;;;;;;;20.10;60.50;;;;;;6139323;23;19931;-82
2022/04/20 14:05:45;;;;;;;;;;;20.30;59.30;;;;;;6149691;23;19927;-81
2022/04/20 14:08:23;;;;;;;;;;;20.50;59.70;;;;;;6138697;23;19921;-83
2022/04/20 14:10:54;;;;;;;;;;;20.80;60.30;;;;;;6161963;23;19921;-83
2022/04/20 14:13:44;;;;;;;;;;;21.00;58.50;;;;;;6117457;23;19925;-81
2022/04/20 14:16:13;;;;;;;;;;;21.20;59.10;;;;;;6140889;23;19921;-81
2022/04/20 14:18:42;;;;;;;;;;;21.40;57.70;;;;;;6139681;23;19921;-81
2022/04/20 14:21:13;;;;;;;;;;;21.60;58.40;;;;;;6151448;23;19921;-82
2022/04/20 14:23:42;;;;;;;;;;;22.40;58.90;;;;;;6149441;23;19932;-80
2022/04/20 14:34:35;;;;;;;;;;;21.60;56.30;;;;;;6139640;23;19925;-82
2022/04/20 14:37:04;;;;;;;;;;;22.50;56.00;;;;;;6137745;23;19928;-82
2022/04/20 14:39:33;;;;;;;;;;;22.50;55.50;;;;;;6141776;23;19921;-80
2022/04/20 14:42:03;;;;;;;;;;;22.20;56.60;;;;;;6152786;23;19908;-80
2022/04/20 14:44:45;;;;;;;;;;;22.30;57.30;;;;;;6140277;23;19921;-82
2022/04/20 14:47:16;;;;;;;;;;;22.00;56.90;;;;;;6150386;23;19925;-82
2022/04/20 14:49:45;;;;;;;;;;;22.10;57.20;;;;;;6164616;23;19931;-80
2022/04/20 14:52:18;;;;;;;;;;;22.30;57.90;;;;;;6138643;23;19931;-82
2022/04/20 14:54:46;;;;;;;;;;;22.40;57.40;;;;;;6130395;23;19921;-81
2022/04/20 14:57:36;;;;;;;;;;;22.60;58.30;;;;;;6138068;23;19935;-79
2022/04/20 15:00:12;;;;;;;;;;;22.70;56.70;;;;;;6137065;23;19932;-80
2022/04/20 15:02:42;;;;;;;;;;;22.70;56.30;;;;;;6136361;23;19925;-81
2022/04/20 15:05:23;;;;;;;;;;;22.40;55.90;;;;;;6162567;23;20246;-81
2022/04/20 15:07:52;;;;;;;;;;;22.10;56.20;;;;;;6148186;23;19925;-84
2022/04/20 15:10:22;;;;;;;;;;;22.30;56.60;;;;;;6117105;23;19931;-82
2022/04/20 15:12:51;;;;;;;;;;;22.20;56.00;;;;;;6166348;23;19928;-80
2022/04/20 15:15:20;;;;;;;;;;;22.40;55.80;;;;;;6148985;23;19924;-80
2022/04/20 15:17:47;;;;;;;;;;;22.40;56.60;;;;;;6152076;23;19925;-81
2022/04/20 15:20:18;;;;;;;;;;;22.40;56.70;;;;;;6172256;23;19931;-81
2022/04/20 15:22:47;;;;;;;;;;;22.20;54.30;;;;;;6137895;23;19924;-80
2022/04/20 15:25:15;;;;;;;;;;;21.80;55.50;;;;;;6147742;23;19924;-81
2022/04/20 15:27:44;;;;;;;;;;;21.50;55.40;;;;;;6137160;23;19931;-81
2022/04/20 15:30:14;;;;;;;;;;;21.00;55.90;;;;;;6139042;23;19927;-80
2022/04/20 15:32:42;;;;;;;;;;;20.60;56.90;;;;;;6150506;23;19924;-82
2022/04/20 15:35:11;;;;;;;;;;;20.00;57.80;;;;;;6151253;23;19927;-80
2022/04/20 15:37:50;;;;;;;;;;;19.70;58.70;;;;;;6115113;23;19924;-80
2022/04/20 15:40:22;;;;;;;;;;;19.60;59.20;;;;;;6141198;23;19932;-80
2022/04/20 15:42:52;;;;;;;;;;;19.60;59.90;;;;;;6148610;23;19921;-80
2022/04/20 15:45:20;;;;;;;;;;;19.60;59.30;;;;;;6143207;23;19925;-81
2022/04/20 15:47:48;;;;;;;;;;;19.50;59.00;;;;;;6140602;23;19925;-81
2022/04/20 15:50:18;;;;;;;;;;;19.60;59.10;;;;;;6140785;23;19924;-80
2022/04/20 15:52:48;;;;;;;;;;;19.90;59.60;;;;;;6144190;23;20219;-80
2022/04/20 16:00:59;;;;;;;;;;;20.30;59.10;;;;;;6136165;23;20512;-81
2022/04/20 16:03:27;;;;;;;;;;;21.20;58.60;;;;;;6114207;23;19929;-81
2022/04/20 16:05:57;;;;;;;;;;;21.40;57.40;;;;;;6141692;23;19924;-81
2022/04/20 16:08:26;;;;;;;;;;;22.00;56.20;;;;;;6165286;23;19931;-81
2022/04/20 16:10:54;;;;;;;;;;;22.30;54.90;;;;;;6139125;23;19925;-80
2022/04/20 16:13:23;;;;;;;;;;;22.50;56.30;;;;;;6135805;23;20298;-79
2022/04/20 16:15:56;;;;;;;;;;;22.80;54.40;;;;;;6138327;23;19928;-80
2022/04/20 16:18:25;;;;;;;;;;;22.70;53.90;;;;;;6138873;23;19925;-80
2022/04/20 16:20:53;;;;;;;;;;;23.00;54.80;;;;;;6135863;23;19921;-81
2022/04/20 16:23:24;;;;;;;;;;;22.90;54.30;;;;;;6146413;23;19924;-82
2022/04/20 16:25:58;;;;;;;;;;;22.80;55.00;;;;;;6148197;23;20334;-81
2022/04/20 16:28:30;;;;;;;;;;;22.80;53.80;;;;;;6162438;23;19935;-80
2022/04/20 16:31:03;;;;;;;;;;;22.70;54.30;;;;;;6149308;23;19929;-80